Oakland, NJ (07436)

4:02 AM EDT on September 16, 2014 (GMT -0400)
KNJOAKLA11 RamapoRiver | Change Station
CLOSE
Current Station
Personal Weather Station
Location: Oakland, NJ
Elevation: 260 ft
Nearby Weather Stations

Elev 260 ft 41.03 °N, 74.24 °W | Updated 18 seconds ago

Partly Cloudy
Partly Cloudy
50.5 °F
Feels Like 50.5 °F
N
0.0
Wind Variable Wind from WSW
Gusts 0.0 mph

Today
High -- | Low -- °F
--% Chance of Precip.
Yesterday
High -- | Low -- °F
Precip. -- in
6:38 AM 7:04 PM
Waning Gibbous, 48% visible
Pressure 30.07 in
Visibility 10.0 miles
Clouds Scattered Clouds 5000 ft
Dew Point 49 °F
Humidity 94%
Rainfall 0.00 in
Snow Depth Not available.
UV 0 out of 12
Pollen 3.30 out of 12
Air Quality Not available.
Flu Activity Not available.
METAR KCDW 160753Z AUTO 00000KT 10SM SCT050 12/10 A3005 RMK AO2 SLP182 T01220100 TSNO

More Conditions Fewer Conditions

Pressure 30.07 in
Visibility 10.0 miles
Clouds Scattered Clouds 5000 ft
Dew Point 49 °F
Humidity 94%
Rainfall 0.00 in
Snow Depth Not available.
UV 0 out of 12
Pollen 3.30 out of 12
Air Quality Not available.
Flu Activity Not available.
METAR KCDW 160753Z AUTO 00000KT 10SM SCT050 12/10 A3005 RMK AO2 SLP182 T01220100 TSNO

More Conditions Fewer Conditions

10-Day Weather Forecast

Almanac

Astronomy

Sep. 16, 2014 Rise Set
Actual Time 6:38 AM EDT 7:04 PM EDT
Civil Twilight 6:10 AM EDT 7:31 PM EDT
Nautical Twilight 5:38 AM EDT 8:04 PM EDT
Astronomical Twilight 5:04 AM EDT 8:37 PM EDT
Moon No Moon Rise 2:28 PM EDT
Length of Visible Light 13h 21m
Length of Day
12h 25m
Tomorrow will be 2m 42s shorter.
Waning Gibbous, 48% of the Moon is Illuminated
Today
Waning Gibbous
Sep 24
New
Oct 1
First Quarter
Oct 8
Full
Oct 15
Last Quarter

Today's Extremes

State Highs State Lows

Community

WunderPhotos

Upload Photos

1,753,712 photos uploaded!

Nearby

Snow Depth

Station Depth Elevation
No new snow has been reported.

Earthquake Activity

City Distance Mag. Time & Date
No recent earthquake activity has been reported nearby.
Minimum magnitude displayed is 2.5.

Coastal Water Temperatures

Place Temperature
Kings Point, NY 69.1 °F
Bridgeport, CT 70.0 °F

Nearby Weather Stations